sensor_id;sensor_type;location;lat;lon;timestamp;P1;P2;P0
40371;PMS5003;28564;53.346;-6.554;2022-10-31T00:00:40;3;2;
40371;PMS5003;28564;53.346;-6.554;2022-10-31T00:03:07;6;3;
40371;PMS5003;28564;53.346;-6.554;2022-10-31T00:05:35;2;2;
40371;PMS5003;28564;53.346;-6.554;2022-10-31T00:08:02;4;2;
40371;PMS5003;28564;53.346;-6.554;2022-10-31T00:10:29;3;3;
40371;PMS5003;28564;53.346;-6.554;2022-10-31T00:12:56;4;2;
40371;PMS5003;28564;53.346;-6.554;2022-10-31T00:15:23;2;0;
40371;PMS5003;28564;53.346;-6.554;2022-10-31T00:17:50;7;1;
40371;PMS5003;28564;53.346;-6.554;2022-10-31T00:20:17;6;3;
40371;PMS5003;28564;53.346;-6.554;2022-10-31T00:22:44;1;1;
40371;PMS5003;28564;53.346;-6.554;2022-10-31T00:25:11;3;3;
40371;PMS5003;28564;53.346;-6.554;2022-10-31T00:27:39;4;3;
40371;PMS5003;28564;53.346;-6.554;2022-10-31T00:30:06;3;2;
40371;PMS5003;28564;53.346;-6.554;2022-10-31T00:32:34;2;2;
40371;PMS5003;28564;53.346;-6.554;2022-10-31T00:35:01;3;2;
40371;PMS5003;28564;53.346;-6.554;2022-10-31T00:37:28;2;2;
40371;PMS5003;28564;53.346;-6.554;2022-10-31T00:39:55;3;1;
40371;PMS5003;28564;53.346;-6.554;2022-10-31T00:42:22;4;3;
40371;PMS5003;28564;53.346;-6.554;2022-10-31T00:44:49;4;2;
40371;PMS5003;28564;53.346;-6.554;2022-10-31T00:47:17;7;3;
40371;PMS5003;28564;53.346;-6.554;2022-10-31T00:49:44;5;2;
40371;PMS5003;28564;53.346;-6.554;2022-10-31T00:52:11;6;1;
40371;PMS5003;28564;53.346;-6.554;2022-10-31T00:54:38;2;2;
40371;PMS5003;28564;53.346;-6.554;2022-10-31T00:57:06;1;1;
40371;PMS5003;28564;53.346;-6.554;2022-10-31T00:59:33;2;2;
40371;PMS5003;28564;53.346;-6.554;2022-10-31T01:02:00;3;3;
40371;PMS5003;28564;53.346;-6.554;2022-10-31T01:04:27;2;2;
40371;PMS5003;28564;53.346;-6.554;2022-10-31T01:06:54;2;2;
40371;PMS5003;28564;53.346;-6.554;2022-10-31T01:09:21;4;3;
40371;PMS5003;28564;53.346;-6.554;2022-10-31T01:11:49;4;2;
40371;PMS5003;28564;53.346;-6.554;2022-10-31T01:14:17;3;2;
40371;PMS5003;28564;53.346;-6.554;2022-10-31T01:16:44;4;1;
40371;PMS5003;28564;53.346;-6.554;2022-10-31T01:19:11;5;4;
40371;PMS5003;28564;53.346;-6.554;2022-10-31T01:21:38;2;1;
40371;PMS5003;28564;53.346;-6.554;2022-10-31T01:24:06;1;1;
40371;PMS5003;28564;53.346;-6.554;2022-10-31T01:26:34;2;1;
40371;PMS5003;28564;53.346;-6.554;2022-10-31T01:29:03;2;2;
40371;PMS5003;28564;53.346;-6.554;2022-10-31T01:31:33;4;1;
40371;PMS5003;28564;53.346;-6.554;2022-10-31T01:34:02;5;3;
40371;PMS5003;28564;53.346;-6.554;2022-10-31T01:36:31;1;1;
40371;PMS5003;28564;53.346;-6.554;2022-10-31T01:39:00;7;2;
40371;PMS5003;28564;53.346;-6.554;2022-10-31T01:41:31;4;2;
40371;PMS5003;28564;53.346;-6.554;2022-10-31T01:44:00;5;3;
40371;PMS5003;28564;53.346;-6.554;2022-10-31T01:46:30;6;4;
40371;PMS5003;28564;53.346;-6.554;2022-10-31T01:49:01;3;3;
40371;PMS5003;28564;53.346;-6.554;2022-10-31T01:51:36;4;2;
40371;PMS5003;28564;53.346;-6.554;2022-10-31T01:54:07;3;2;
40371;PMS5003;28564;53.346;-6.554;2022-10-31T01:56:39;7;4;
40371;PMS5003;28564;53.346;-6.554;2022-10-31T01:59:10;1;1;
40371;PMS5003;28564;53.346;-6.554;2022-10-31T02:01:40;6;2;
40371;PMS5003;28564;53.346;-6.554;2022-10-31T02:04:07;5;2;
40371;PMS5003;28564;53.346;-6.554;2022-10-31T02:06:36;4;1;
40371;PMS5003;28564;53.346;-6.554;2022-10-31T02:09:07;3;2;
40371;PMS5003;28564;53.346;-6.554;2022-10-31T02:11:34;5;2;
40371;PMS5003;28564;53.346;-6.554;2022-10-31T02:14:02;3;3;
40371;PMS5003;28564;53.346;-6.554;2022-10-31T02:16:29;2;1;
40371;PMS5003;28564;53.346;-6.554;2022-10-31T02:18:56;5;1;
40371;PMS5003;28564;53.346;-6.554;2022-10-31T02:21:25;11;3;
40371;PMS5003;28564;53.346;-6.554;2022-10-31T02:25:09;7;2;
40371;PMS5003;28564;53.346;-6.554;2022-10-31T02:27:56;3;2;
40371;PMS5003;28564;53.346;-6.554;2022-10-31T02:31:00;2;2;
40371;PMS5003;28564;53.346;-6.554;2022-10-31T02:33:38;5;3;
40371;PMS5003;28564;53.346;-6.554;2022-10-31T02:36:11;5;3;
40371;PMS5003;28564;53.346;-6.554;2022-10-31T02:38:47;3;1;
40371;PMS5003;28564;53.346;-6.554;2022-10-31T02:41:20;8;2;
40371;PMS5003;28564;53.346;-6.554;2022-10-31T02:44:01;5;3;
40371;PMS5003;28564;53.346;-6.554;2022-10-31T02:46:37;4;3;
40371;PMS5003;28564;53.346;-6.554;2022-10-31T02:49:11;2;1;
40371;PMS5003;28564;53.346;-6.554;2022-10-31T02:51:45;3;2;
40371;PMS5003;28564;53.346;-6.554;2022-10-31T02:54:21;3;3;
40371;PMS5003;28564;53.346;-6.554;2022-10-31T02:56:50;4;2;
40371;PMS5003;28564;53.346;-6.554;2022-10-31T02:59:21;3;2;
40371;PMS5003;28564;53.346;-6.554;2022-10-31T03:01:54;1;1;
40371;PMS5003;28564;53.346;-6.554;2022-10-31T03:02:12;2;2;
40371;PMS5003;28564;53.346;-6.554;2022-10-31T03:04:55;4;2;
40371;PMS5003;28564;53.346;-6.554;2022-10-31T03:07:38;3;3;
40371;PMS5003;28564;53.346;-6.554;2022-10-31T03:10:14;2;2;
40371;PMS5003;28564;53.346;-6.554;2022-10-31T03:12:51;3;2;
40371;PMS5003;28564;53.346;-6.554;2022-10-31T03:15:27;3;0;
40371;PMS5003;28564;53.346;-6.554;2022-10-31T03:17:58;2;2;
40371;PMS5003;28564;53.346;-6.554;2022-10-31T03:20:32;2;1;
40371;PMS5003;28564;53.346;-6.554;2022-10-31T03:23:03;5;2;
40371;PMS5003;28564;53.346;-6.554;2022-10-31T03:25:33;4;3;
40371;PMS5003;28564;53.346;-6.554;2022-10-31T03:28:02;3;3;
40371;PMS5003;28564;53.346;-6.554;2022-10-31T03:30:31;2;2;
40371;PMS5003;28564;53.346;-6.554;2022-10-31T03:33:03;3;0;
40371;PMS5003;28564;53.346;-6.554;2022-10-31T03:35:34;2;2;
40371;PMS5003;28564;53.346;-6.554;2022-10-31T03:38:11;3;2;
40371;PMS5003;28564;53.346;-6.554;2022-10-31T03:40:40;4;2;
40371;PMS5003;28564;53.346;-6.554;2022-10-31T03:43:12;6;5;
40371;PMS5003;28564;53.346;-6.554;2022-10-31T03:45:43;1;1;
40371;PMS5003;28564;53.346;-6.554;2022-10-31T03:48:13;9;7;
40371;PMS5003;28564;53.346;-6.554;2022-10-31T03:50:45;3;3;
40371;PMS5003;28564;53.346;-6.554;2022-10-31T03:53:22;4;1;
40371;PMS5003;28564;53.346;-6.554;2022-10-31T03:55:55;7;1;
40371;PMS5003;28564;53.346;-6.554;2022-10-31T03:58:28;3;2;
40371;PMS5003;28564;53.346;-6.554;2022-10-31T04:01:00;5;2;
40371;PMS5003;28564;53.346;-6.554;2022-10-31T04:03:31;4;3;
40371;PMS5003;28564;53.346;-6.554;2022-10-31T04:06:04;3;1;
40371;PMS5003;28564;53.346;-6.554;2022-10-31T04:08:37;2;0;
40371;PMS5003;28564;53.346;-6.554;2022-10-31T04:11:08;9;2;
40371;PMS5003;28564;53.346;-6.554;2022-10-31T04:13:39;0;0;
40371;PMS5003;28564;53.346;-6.554;2022-10-31T04:16:09;2;2;
40371;PMS5003;28564;53.346;-6.554;2022-10-31T04:18:39;4;2;
40371;PMS5003;28564;53.346;-6.554;2022-10-31T04:21:07;2;2;
40371;PMS5003;28564;53.346;-6.554;2022-10-31T04:23:35;3;2;
40371;PMS5003;28564;53.346;-6.554;2022-10-31T04:26:02;2;2;
40371;PMS5003;28564;53.346;-6.554;2022-10-31T04:28:30;5;2;
40371;PMS5003;28564;53.346;-6.554;2022-10-31T04:30:57;5;3;
40371;PMS5003;28564;53.346;-6.554;2022-10-31T04:33:24;2;2;
40371;PMS5003;28564;53.346;-6.554;2022-10-31T04:35:51;3;1;
40371;PMS5003;28564;53.346;-6.554;2022-10-31T04:38:18;2;2;
40371;PMS5003;28564;53.346;-6.554;2022-10-31T04:40:45;2;1;
40371;PMS5003;28564;53.346;-6.554;2022-10-31T04:43:12;5;2;
40371;PMS5003;28564;53.346;-6.554;2022-10-31T04:45:39;6;2;
40371;PMS5003;28564;53.346;-6.554;2022-10-31T04:48:07;1;1;
40371;PMS5003;28564;53.346;-6.554;2022-10-31T04:50:34;4;2;
40371;PMS5003;28564;53.346;-6.554;2022-10-31T04:53:01;7;3;
40371;PMS5003;28564;53.346;-6.554;2022-10-31T04:55:28;2;2;
40371;PMS5003;28564;53.346;-6.554;2022-10-31T04:57:55;2;0;
40371;PMS5003;28564;53.346;-6.554;2022-10-31T05:00:23;3;1;
40371;PMS5003;28564;53.346;-6.554;2022-10-31T05:02:52;1;0;
40371;PMS5003;28564;53.346;-6.554;2022-10-31T05:05:21;3;3;
40371;PMS5003;28564;53.346;-6.554;2022-10-31T05:07:50;3;1;
40371;PMS5003;28564;53.346;-6.554;2022-10-31T05:10:19;3;3;
40371;PMS5003;28564;53.346;-6.554;2022-10-31T05:12:51;8;1;
40371;PMS5003;28564;53.346;-6.554;2022-10-31T05:15:20;4;2;
40371;PMS5003;28564;53.346;-6.554;2022-10-31T05:17:49;1;1;
40371;PMS5003;28564;53.346;-6.554;2022-10-31T05:20:17;2;1;
40371;PMS5003;28564;53.346;-6.554;2022-10-31T05:22:47;3;2;
40371;PMS5003;28564;53.346;-6.554;2022-10-31T05:25:15;3;2;
40371;PMS5003;28564;53.346;-6.554;2022-10-31T05:27:44;6;2;
40371;PMS5003;28564;53.346;-6.554;2022-10-31T05:30:14;5;2;
40371;PMS5003;28564;53.346;-6.554;2022-10-31T05:32:45;0;0;
40371;PMS5003;28564;53.346;-6.554;2022-10-31T05:35:14;5;2;
40371;PMS5003;28564;53.346;-6.554;2022-10-31T05:37:43;5;4;
40371;PMS5003;28564;53.346;-6.554;2022-10-31T05:40:11;1;1;
40371;PMS5003;28564;53.346;-6.554;2022-10-31T05:42:40;1;1;
40371;PMS5003;28564;53.346;-6.554;2022-10-31T05:45:08;7;2;
40371;PMS5003;28564;53.346;-6.554;2022-10-31T05:47:36;2;0;
40371;PMS5003;28564;53.346;-6.554;2022-10-31T05:50:03;2;0;
40371;PMS5003;28564;53.346;-6.554;2022-10-31T05:52:32;1;1;
40371;PMS5003;28564;53.346;-6.554;2022-10-31T05:54:59;2;2;
40371;PMS5003;28564;53.346;-6.554;2022-10-31T05:57:26;3;3;
40371;PMS5003;28564;53.346;-6.554;2022-10-31T05:59:55;2;2;
40371;PMS5003;28564;53.346;-6.554;2022-10-31T06:02:22;4;2;
40371;PMS5003;28564;53.346;-6.554;2022-10-31T06:04:49;1;1;
40371;PMS5003;28564;53.346;-6.554;2022-10-31T06:07:17;4;1;
40371;PMS5003;28564;53.346;-6.554;2022-10-31T06:09:44;2;1;
40371;PMS5003;28564;53.346;-6.554;2022-10-31T06:12:11;2;2;
40371;PMS5003;28564;53.346;-6.554;2022-10-31T06:14:38;8;3;
40371;PMS5003;28564;53.346;-6.554;2022-10-31T06:17:05;3;2;
40371;PMS5003;28564;53.346;-6.554;2022-10-31T06:19:32;7;4;
40371;PMS5003;28564;53.346;-6.554;2022-10-31T06:21:59;6;3;
40371;PMS5003;28564;53.346;-6.554;2022-10-31T06:24:26;2;2;
40371;PMS5003;28564;53.346;-6.554;2022-10-31T06:26:54;4;2;
40371;PMS5003;28564;53.346;-6.554;2022-10-31T06:29:21;8;3;
40371;PMS5003;28564;53.346;-6.554;2022-10-31T06:31:50;3;3;
40371;PMS5003;28564;53.346;-6.554;2022-10-31T06:34:17;3;2;
40371;PMS5003;28564;53.346;-6.554;2022-10-31T06:36:45;3;2;
40371;PMS5003;28564;53.346;-6.554;2022-10-31T06:39:13;1;1;
40371;PMS5003;28564;53.346;-6.554;2022-10-31T06:41:40;3;1;
40371;PMS5003;28564;53.346;-6.554;2022-10-31T06:44:07;4;2;
40371;PMS5003;28564;53.346;-6.554;2022-10-31T06:46:35;5;2;
40371;PMS5003;28564;53.346;-6.554;2022-10-31T06:49:02;5;3;
40371;PMS5003;28564;53.346;-6.554;2022-10-31T06:51:29;3;1;
40371;PMS5003;28564;53.346;-6.554;2022-10-31T06:53:56;8;4;
40371;PMS5003;28564;53.346;-6.554;2022-10-31T06:56:23;4;1;
40371;PMS5003;28564;53.346;-6.554;2022-10-31T06:58:50;2;2;
40371;PMS5003;28564;53.346;-6.554;2022-10-31T07:01:17;2;2;
40371;PMS5003;28564;53.346;-6.554;2022-10-31T07:03:44;5;1;
40371;PMS5003;28564;53.346;-6.554;2022-10-31T07:06:11;3;0;
40371;PMS5003;28564;53.346;-6.554;2022-10-31T07:08:38;2;2;
40371;PMS5003;28564;53.346;-6.554;2022-10-31T07:11:06;2;2;
40371;PMS5003;28564;53.346;-6.554;2022-10-31T07:13:33;1;1;
40371;PMS5003;28564;53.346;-6.554;2022-10-31T07:16:01;3;2;
40371;PMS5003;28564;53.346;-6.554;2022-10-31T07:18:30;2;0;
40371;PMS5003;28564;53.346;-6.554;2022-10-31T07:20:57;2;2;
40371;PMS5003;28564;53.346;-6.554;2022-10-31T07:23:24;4;3;
40371;PMS5003;28564;53.346;-6.554;2022-10-31T07:25:54;2;2;
40371;PMS5003;28564;53.346;-6.554;2022-10-31T07:28:22;4;1;
40371;PMS5003;28564;53.346;-6.554;2022-10-31T07:30:50;2;1;
40371;PMS5003;28564;53.346;-6.554;2022-10-31T07:33:17;1;1;
40371;PMS5003;28564;53.346;-6.554;2022-10-31T07:35:44;3;0;
40371;PMS5003;28564;53.346;-6.554;2022-10-31T07:38:12;4;1;
40371;PMS5003;28564;53.346;-6.554;2022-10-31T07:40:41;2;2;
40371;PMS5003;28564;53.346;-6.554;2022-10-31T07:43:09;6;3;
40371;PMS5003;28564;53.346;-6.554;2022-10-31T07:45:37;3;3;
40371;PMS5003;28564;53.346;-6.554;2022-10-31T07:48:04;3;1;
40371;PMS5003;28564;53.346;-6.554;2022-10-31T07:50:32;5;2;
40371;PMS5003;28564;53.346;-6.554;2022-10-31T07:53:00;4;2;
40371;PMS5003;28564;53.346;-6.554;2022-10-31T07:55:28;5;3;
40371;PMS5003;28564;53.346;-6.554;2022-10-31T07:57:57;5;1;
40371;PMS5003;28564;53.346;-6.554;2022-10-31T08:00:25;2;2;
40371;PMS5003;28564;53.346;-6.554;2022-10-31T08:02:57;4;3;
40371;PMS5003;28564;53.346;-6.554;2022-10-31T08:05:25;6;3;
40371;PMS5003;28564;53.346;-6.554;2022-10-31T08:07:52;7;3;
40371;PMS5003;28564;53.346;-6.554;2022-10-31T08:10:19;3;1;
40371;PMS5003;28564;53.346;-6.554;2022-10-31T08:12:54;4;2;
40371;PMS5003;28564;53.346;-6.554;2022-10-31T08:15:22;3;3;
40371;PMS5003;28564;53.346;-6.554;2022-10-31T08:17:50;7;3;
40371;PMS5003;28564;53.346;-6.554;2022-10-31T08:20:18;4;1;
40371;PMS5003;28564;53.346;-6.554;2022-10-31T08:22:52;2;2;
40371;PMS5003;28564;53.346;-6.554;2022-10-31T08:25:20;7;2;
40371;PMS5003;28564;53.346;-6.554;2022-10-31T08:27:48;4;3;
40371;PMS5003;28564;53.346;-6.554;2022-10-31T08:30:16;6;2;
40371;PMS5003;28564;53.346;-6.554;2022-10-31T08:32:43;6;5;
40371;PMS5003;28564;53.346;-6.554;2022-10-31T08:35:11;5;2;
40371;PMS5003;28564;53.346;-6.554;2022-10-31T08:37:38;3;3;
40371;PMS5003;28564;53.346;-6.554;2022-10-31T08:40:05;4;3;
40371;PMS5003;28564;53.346;-6.554;2022-10-31T08:42:33;3;3;
40371;PMS5003;28564;53.346;-6.554;2022-10-31T08:45:00;2;2;
40371;PMS5003;28564;53.346;-6.554;2022-10-31T08:47:27;5;4;
40371;PMS5003;28564;53.346;-6.554;2022-10-31T08:49:54;9;4;
40371;PMS5003;28564;53.346;-6.554;2022-10-31T08:52:22;4;2;
40371;PMS5003;28564;53.346;-6.554;2022-10-31T08:54:50;6;2;
40371;PMS5003;28564;53.346;-6.554;2022-10-31T08:57:18;7;2;
40371;PMS5003;28564;53.346;-6.554;2022-10-31T08:59:45;7;2;
40371;PMS5003;28564;53.346;-6.554;2022-10-31T09:02:12;5;1;
40371;PMS5003;28564;53.346;-6.554;2022-10-31T09:04:39;8;3;
40371;PMS5003;28564;53.346;-6.554;2022-10-31T09:07:06;4;3;
40371;PMS5003;28564;53.346;-6.554;2022-10-31T09:09:33;7;5;
40371;PMS5003;28564;53.346;-6.554;2022-10-31T09:12:00;4;1;
40371;PMS5003;28564;53.346;-6.554;2022-10-31T09:14:27;3;2;
40371;PMS5003;28564;53.346;-6.554;2022-10-31T09:16:55;10;8;
40371;PMS5003;28564;53.346;-6.554;2022-10-31T09:19:22;3;3;
40371;PMS5003;28564;53.346;-6.554;2022-10-31T09:21:51;4;3;
40371;PMS5003;28564;53.346;-6.554;2022-10-31T09:24:19;1;0;
40371;PMS5003;28564;53.346;-6.554;2022-10-31T09:26:46;2;2;
40371;PMS5003;28564;53.346;-6.554;2022-10-31T09:29:13;6;3;
40371;PMS5003;28564;53.346;-6.554;2022-10-31T09:31:40;2;1;
40371;PMS5003;28564;53.346;-6.554;2022-10-31T09:34:07;2;1;
40371;PMS5003;28564;53.346;-6.554;2022-10-31T09:36:34;1;1;
40371;PMS5003;28564;53.346;-6.554;2022-10-31T09:39:02;2;2;
40371;PMS5003;28564;53.346;-6.554;2022-10-31T09:41:32;5;3;
40371;PMS5003;28564;53.346;-6.554;2022-10-31T09:44:18;6;1;
40371;PMS5003;28564;53.346;-6.554;2022-10-31T09:46:54;5;1;
40371;PMS5003;28564;53.346;-6.554;2022-10-31T09:49:35;5;2;
40371;PMS5003;28564;53.346;-6.554;2022-10-31T09:52:17;5;3;
40371;PMS5003;28564;53.346;-6.554;2022-10-31T09:54:51;8;4;
40371;PMS5003;28564;53.346;-6.554;2022-10-31T09:57:23;5;2;
40371;PMS5003;28564;53.346;-6.554;2022-10-31T09:59:55;5;3;
40371;PMS5003;28564;53.346;-6.554;2022-10-31T10:03:50;7;3;
40371;PMS5003;28564;53.346;-6.554;2022-10-31T10:06:24;2;1;
40371;PMS5003;28564;53.346;-6.554;2022-10-31T10:08:55;6;1;
40371;PMS5003;28564;53.346;-6.554;2022-10-31T10:11:27;1;1;
40371;PMS5003;28564;53.346;-6.554;2022-10-31T10:14:10;3;2;
40371;PMS5003;28564;53.346;-6.554;2022-10-31T10:16:52;9;3;
40371;PMS5003;28564;53.346;-6.554;2022-10-31T10:19:37;6;2;
40371;PMS5003;28564;53.346;-6.554;2022-10-31T10:22:22;2;0;
40371;PMS5003;28564;53.346;-6.554;2022-10-31T10:24:59;6;3;
40371;PMS5003;28564;53.346;-6.554;2022-10-31T10:28:00;4;2;
40371;PMS5003;28564;53.346;-6.554;2022-10-31T10:30:35;4;2;
40371;PMS5003;28564;53.346;-6.554;2022-10-31T10:33:09;4;2;
40371;PMS5003;28564;53.346;-6.554;2022-10-31T10:35:39;7;3;
40371;PMS5003;28564;53.346;-6.554;2022-10-31T10:38:14;3;2;
40371;PMS5003;28564;53.346;-6.554;2022-10-31T10:40:46;3;3;
40371;PMS5003;28564;53.346;-6.554;2022-10-31T10:43:19;2;2;
40371;PMS5003;28564;53.346;-6.554;2022-10-31T10:45:49;3;3;
40371;PMS5003;28564;53.346;-6.554;2022-10-31T10:48:27;3;2;
40371;PMS5003;28564;53.346;-6.554;2022-10-31T10:50:59;2;1;
40371;PMS5003;28564;53.346;-6.554;2022-10-31T10:53:33;2;1;
40371;PMS5003;28564;53.346;-6.554;2022-10-31T10:56:11;1;1;
40371;PMS5003;28564;53.346;-6.554;2022-10-31T10:58:44;3;2;
40371;PMS5003;28564;53.346;-6.554;2022-10-31T11:01:12;7;2;
40371;PMS5003;28564;53.346;-6.554;2022-10-31T11:03:40;5;2;
40371;PMS5003;28564;53.346;-6.554;2022-10-31T11:06:16;2;2;
40371;PMS5003;28564;53.346;-6.554;2022-10-31T11:08:51;1;1;
40371;PMS5003;28564;53.346;-6.554;2022-10-31T11:11:23;5;1;
40371;PMS5003;28564;53.346;-6.554;2022-10-31T11:13:55;1;1;
40371;PMS5003;28564;53.346;-6.554;2022-10-31T11:16:28;3;2;
40371;PMS5003;28564;53.346;-6.554;2022-10-31T11:19:07;3;3;
40371;PMS5003;28564;53.346;-6.554;2022-10-31T11:21:40;1;1;
40371;PMS5003;28564;53.346;-6.554;2022-10-31T11:24:12;2;0;
40371;PMS5003;28564;53.346;-6.554;2022-10-31T11:26:43;1;1;
40371;PMS5003;28564;53.346;-6.554;2022-10-31T11:29:13;1;1;
40371;PMS5003;28564;53.346;-6.554;2022-10-31T11:31:43;1;1;
40371;PMS5003;28564;53.346;-6.554;2022-10-31T11:34:14;3;1;
40371;PMS5003;28564;53.346;-6.554;2022-10-31T11:36:45;1;0;
40371;PMS5003;28564;53.346;-6.554;2022-10-31T11:39:15;3;1;
40371;PMS5003;28564;53.346;-6.554;2022-10-31T11:41:45;0;0;
40371;PMS5003;28564;53.346;-6.554;2022-10-31T11:44:14;2;0;
40371;PMS5003;28564;53.346;-6.554;2022-10-31T11:46:46;0;0;
40371;PMS5003;28564;53.346;-6.554;2022-10-31T11:49:30;1;1;
40371;PMS5003;28564;53.346;-6.554;2022-10-31T11:52:02;0;0;
40371;PMS5003;28564;53.346;-6.554;2022-10-31T11:54:36;1;1;
40371;PMS5003;28564;53.346;-6.554;2022-10-31T11:57:20;1;1;
40371;PMS5003;28564;53.346;-6.554;2022-10-31T11:59:51;1;0;
40371;PMS5003;28564;53.346;-6.554;2022-10-31T12:02:20;0;0;
40371;PMS5003;28564;53.346;-6.554;2022-10-31T12:04:49;1;1;
40371;PMS5003;28564;53.346;-6.554;2022-10-31T12:07:23;1;1;
40371;PMS5003;28564;53.346;-6.554;2022-10-31T12:09:50;1;0;
40371;PMS5003;28564;53.346;-6.554;2022-10-31T12:12:23;1;1;
40371;PMS5003;28564;53.346;-6.554;2022-10-31T12:15:21;2;2;
40371;PMS5003;28564;53.346;-6.554;2022-10-31T12:17:58;3;2;
40371;PMS5003;28564;53.346;-6.554;2022-10-31T12:20:41;2;1;
40371;PMS5003;28564;53.346;-6.554;2022-10-31T12:23:22;1;1;
40371;PMS5003;28564;53.346;-6.554;2022-10-31T12:26:00;3;0;
40371;PMS5003;28564;53.346;-6.554;2022-10-31T12:28:40;3;1;
40371;PMS5003;28564;53.346;-6.554;2022-10-31T12:31:23;5;5;
40371;PMS5003;28564;53.346;-6.554;2022-10-31T12:34:02;5;5;
40371;PMS5003;28564;53.346;-6.554;2022-10-31T12:36:49;8;5;
40371;PMS5003;28564;53.346;-6.554;2022-10-31T12:39:30;6;4;
40371;PMS5003;28564;53.346;-6.554;2022-10-31T12:42:08;3;2;
40371;PMS5003;28564;53.346;-6.554;2022-10-31T12:44:51;0;0;
40371;PMS5003;28564;53.346;-6.554;2022-10-31T12:47:42;2;1;
40371;PMS5003;28564;53.346;-6.554;2022-10-31T12:50:25;3;1;
40371;PMS5003;28564;53.346;-6.554;2022-10-31T12:53:06;2;2;
40371;PMS5003;28564;53.346;-6.554;2022-10-31T12:55:48;2;2;
40371;PMS5003;28564;53.346;-6.554;2022-10-31T12:58:26;3;3;
40371;PMS5003;28564;53.346;-6.554;2022-10-31T13:01:01;3;3;
40371;PMS5003;28564;53.346;-6.554;2022-10-31T13:03:36;5;5;
40371;PMS5003;28564;53.346;-6.554;2022-10-31T13:06:13;5;2;
40371;PMS5003;28564;53.346;-6.554;2022-10-31T13:08:47;3;2;
40371;PMS5003;28564;53.346;-6.554;2022-10-31T13:11:18;3;3;
40371;PMS5003;28564;53.346;-6.554;2022-10-31T13:13:51;2;2;
40371;PMS5003;28564;53.346;-6.554;2022-10-31T13:16:24;6;2;
40371;PMS5003;28564;53.346;-6.554;2022-10-31T13:18:57;2;2;
40371;PMS5003;28564;53.346;-6.554;2022-10-31T13:21:30;5;5;
40371;PMS5003;28564;53.346;-6.554;2022-10-31T13:24:03;5;4;
40371;PMS5003;28564;53.346;-6.554;2022-10-31T13:26:37;8;4;
40371;PMS5003;28564;53.346;-6.554;2022-10-31T13:29:11;6;3;
40371;PMS5003;28564;53.346;-6.554;2022-10-31T13:31:43;6;3;
40371;PMS5003;28564;53.346;-6.554;2022-10-31T13:34:16;5;3;
40371;PMS5003;28564;53.346;-6.554;2022-10-31T13:36:53;2;2;
40371;PMS5003;28564;53.346;-6.554;2022-10-31T13:39:31;6;4;
40371;PMS5003;28564;53.346;-6.554;2022-10-31T13:42:10;5;2;
40371;PMS5003;28564;53.346;-6.554;2022-10-31T13:44:42;3;2;
40371;PMS5003;28564;53.346;-6.554;2022-10-31T13:47:25;2;2;
40371;PMS5003;28564;53.346;-6.554;2022-10-31T13:50:03;2;2;
40371;PMS5003;28564;53.346;-6.554;2022-10-31T13:52:32;7;3;
40371;PMS5003;28564;53.346;-6.554;2022-10-31T13:54:59;5;3;
40371;PMS5003;28564;53.346;-6.554;2022-10-31T13:57:30;2;2;
40371;PMS5003;28564;53.346;-6.554;2022-10-31T14:00:00;3;2;
40371;PMS5003;28564;53.346;-6.554;2022-10-31T14:02:31;5;4;
40371;PMS5003;28564;53.346;-6.554;2022-10-31T14:05:01;4;4;
40371;PMS5003;28564;53.346;-6.554;2022-10-31T14:07:32;4;2;
40371;PMS5003;28564;53.346;-6.554;2022-10-31T14:10:00;3;3;
40371;PMS5003;28564;53.346;-6.554;2022-10-31T14:12:33;4;3;
40371;PMS5003;28564;53.346;-6.554;2022-10-31T14:15:05;6;3;
40371;PMS5003;28564;53.346;-6.554;2022-10-31T14:17:46;3;3;
40371;PMS5003;28564;53.346;-6.554;2022-10-31T14:20:21;2;2;
40371;PMS5003;28564;53.346;-6.554;2022-10-31T14:22:53;3;3;
40371;PMS5003;28564;53.346;-6.554;2022-10-31T14:25:25;2;2;
40371;PMS5003;28564;53.346;-6.554;2022-10-31T14:27:54;3;1;
40371;PMS5003;28564;53.346;-6.554;2022-10-31T14:30:23;2;2;
40371;PMS5003;28564;53.346;-6.554;2022-10-31T14:32:53;2;2;
40371;PMS5003;28564;53.346;-6.554;2022-10-31T14:35:24;4;2;
40371;PMS5003;28564;53.346;-6.554;2022-10-31T14:38:03;4;1;
40371;PMS5003;28564;53.346;-6.554;2022-10-31T14:40:42;4;3;
40371;PMS5003;28564;53.346;-6.554;2022-10-31T14:43:25;2;2;
40371;PMS5003;28564;53.346;-6.554;2022-10-31T14:46:02;3;2;
40371;PMS5003;28564;53.346;-6.554;2022-10-31T14:48:43;8;4;
40371;PMS5003;28564;53.346;-6.554;2022-10-31T14:51:22;4;3;
40371;PMS5003;28564;53.346;-6.554;2022-10-31T14:53:52;5;4;
40371;PMS5003;28564;53.346;-6.554;2022-10-31T14:56:23;5;4;
40371;PMS5003;28564;53.346;-6.554;2022-10-31T14:58:52;10;3;
40371;PMS5003;28564;53.346;-6.554;2022-10-31T15:01:24;3;3;
40371;PMS5003;28564;53.346;-6.554;2022-10-31T15:03:53;5;3;
40371;PMS5003;28564;53.346;-6.554;2022-10-31T15:06:24;3;2;
40371;PMS5003;28564;53.346;-6.554;2022-10-31T15:08:52;4;2;
40371;PMS5003;28564;53.346;-6.554;2022-10-31T15:11:21;5;5;
40371;PMS5003;28564;53.346;-6.554;2022-10-31T15:13:50;8;6;
40371;PMS5003;28564;53.346;-6.554;2022-10-31T15:16:19;2;2;
40371;PMS5003;28564;53.346;-6.554;2022-10-31T15:18:51;4;2;
40371;PMS5003;28564;53.346;-6.554;2022-10-31T15:21:21;3;3;
40371;PMS5003;28564;53.346;-6.554;2022-10-31T15:23:51;6;3;
40371;PMS5003;28564;53.346;-6.554;2022-10-31T15:26:21;3;3;
40371;PMS5003;28564;53.346;-6.554;2022-10-31T15:28:58;2;1;
40371;PMS5003;28564;53.346;-6.554;2022-10-31T15:31:26;4;1;
40371;PMS5003;28564;53.346;-6.554;2022-10-31T15:33:54;3;2;
40371;PMS5003;28564;53.346;-6.554;2022-10-31T15:36:25;3;1;
40371;PMS5003;28564;53.346;-6.554;2022-10-31T15:38:54;5;2;
40371;PMS5003;28564;53.346;-6.554;2022-10-31T15:41:23;2;2;
40371;PMS5003;28564;53.346;-6.554;2022-10-31T15:43:56;2;1;
40371;PMS5003;28564;53.346;-6.554;2022-10-31T15:46:29;1;1;
40371;PMS5003;28564;53.346;-6.554;2022-10-31T15:48:57;2;2;
40371;PMS5003;28564;53.346;-6.554;2022-10-31T15:51:26;1;1;
40371;PMS5003;28564;53.346;-6.554;2022-10-31T15:53:55;2;2;
40371;PMS5003;28564;53.346;-6.554;2022-10-31T15:56:24;4;1;
40371;PMS5003;28564;53.346;-6.554;2022-10-31T15:58:55;3;2;
40371;PMS5003;28564;53.346;-6.554;2022-10-31T16:01:25;4;3;
40371;PMS5003;28564;53.346;-6.554;2022-10-31T16:04:03;3;3;
40371;PMS5003;28564;53.346;-6.554;2022-10-31T16:06:32;2;2;
40371;PMS5003;28564;53.346;-6.554;2022-10-31T16:09:00;6;5;
40371;PMS5003;28564;53.346;-6.554;2022-10-31T16:11:31;4;4;
40371;PMS5003;28564;53.346;-6.554;2022-10-31T16:14:02;9;6;
40371;PMS5003;28564;53.346;-6.554;2022-10-31T16:16:33;8;7;
40371;PMS5003;28564;53.346;-6.554;2022-10-31T16:19:12;8;8;
40371;PMS5003;28564;53.346;-6.554;2022-10-31T16:21:45;9;7;
40371;PMS5003;28564;53.346;-6.554;2022-10-31T16:24:22;5;4;
40371;PMS5003;28564;53.346;-6.554;2022-10-31T16:26:53;8;5;
40371;PMS5003;28564;53.346;-6.554;2022-10-31T16:29:28;4;4;
40371;PMS5003;28564;53.346;-6.554;2022-10-31T16:32:00;4;4;
40371;PMS5003;28564;53.346;-6.554;2022-10-31T16:34:27;5;4;
40371;PMS5003;28564;53.346;-6.554;2022-10-31T16:36:54;5;5;
40371;PMS5003;28564;53.346;-6.554;2022-10-31T16:39:21;8;6;
40371;PMS5003;28564;53.346;-6.554;2022-10-31T16:41:49;8;7;
40371;PMS5003;28564;53.346;-6.554;2022-10-31T16:44:19;10;7;
40371;PMS5003;28564;53.346;-6.554;2022-10-31T16:46:50;15;14;
40371;PMS5003;28564;53.346;-6.554;2022-10-31T16:49:34;15;12;
40371;PMS5003;28564;53.346;-6.554;2022-10-31T16:52:01;8;8;
40371;PMS5003;28564;53.346;-6.554;2022-10-31T16:54:28;14;11;
40371;PMS5003;28564;53.346;-6.554;2022-10-31T16:56:56;13;12;
40371;PMS5003;28564;53.346;-6.554;2022-10-31T16:59:30;15;14;